^^
Station Historical Data
Daily Summary for March 1, 2019 Units:  Metric    English   Both
« Previous Day
Next Day »
Daily Weekly Monthly Yearly Custom
  High: Low: Average:
Temperature: -8.2 °C -16.6 °C -12.2 °C
Dew Point: -11.6 °C -19.3 °C -14.5 °C
Humidity: 89% 72% 83%
Wind Speed: 19.3km/h 0km/h 6.8km/h
Wind Gust: 22.5km/h - -
Wind- - WSW
Pressure: 1030 hPa 1017.2 hPa -
Precipitation: 0 mm    
Historical Graphs
 
 
Tabular Data for March 1, 2019
Time Temperature Dew Point Pressure Wind Wind Speed Wind Gust Humidity Rainfall Rate (Hourly) solar Conditions
00:04 -11.9 °C -14.1 °C 1017.5 hPa SE 4.8 km/h 6.4 km/h 84% 0 mm 0.00 W/m2
00:09 -12 °C -14.2 °C 1017.5 hPa ESE 3.2 km/h 6.4 km/h 84% 0 mm 0.00 W/m2
00:14 -11.9 °C -14.1 °C 1017.5 hPa ESE 1.6 km/h 4.8 km/h 84% 0 mm 0.00 W/m2
00:19 -12 °C -14.2 °C 1017.5 hPa ESE 1.6 km/h 4.8 km/h 84% 0 mm 0.00 W/m2
00:24 -12.1 °C -14.3 °C 1017.8 hPa ESE 3.2 km/h 4.8 km/h 84% 0 mm 0.00 W/m2
00:29 -12.2 °C -14.3 °C 1017.5 hPa ESE 4.8 km/h 4.8 km/h 84% 0 mm 0.00 W/m2
00:34 -12.2 °C -14.3 °C 1017.5 hPa ENE 6.4 km/h 8 km/h 84% 0 mm 0.00 W/m2
00:39 -12.2 °C -14.4 °C 1017.5 hPa ENE 4.8 km/h 8 km/h 84% 0 mm 0.00 W/m2
00:44 -12.3 °C -14.4 °C 1017.5 hPa ENE 4.8 km/h 6.4 km/h 84% 0 mm 0.00 W/m2
00:49 -12.3 °C -14.5 °C 1017.2 hPa ENE 3.2 km/h 6.4 km/h 84% 0 mm 0.00 W/m2
00:54 -12.3 °C -14.3 °C 1017.2 hPa ENE 4.8 km/h 6.4 km/h 85% 0 mm 0.00 W/m2
00:59 -12.1 °C -14.1 °C 1017.2 hPa ENE 6.4 km/h 6.4 km/h 85% 0 mm 0.00 W/m2
01:04 -12 °C -14 °C 1017.2 hPa ENE 4.8 km/h 6.4 km/h 85% 0 mm 0.00 W/m2
01:09 -11.9 °C -14.1 °C 1017.5 hPa ENE 1.6 km/h 6.4 km/h 84% 0 mm 0.00 W/m2
01:14 -11.9 °C -14.1 °C 1017.2 hPa ENE 1.6 km/h 6.4 km/h 84% 0 mm 0.00 W/m2
01:19 -11.8 °C -13.9 °C 1017.5 hPa ENE 3.2 km/h 3.2 km/h 84% 0 mm 0.00 W/m2
01:24 -11.7 °C -13.9 °C 1017.5 hPa ENE 3.2 km/h 4.8 km/h 84% 0 mm 0.00 W/m2
01:29 -11.7 °C -13.9 °C 1017.5 hPa ENE 1.6 km/h 4.8 km/h 84% 0 mm 0.00 W/m2
01:34 -11.7 °C -13.8 °C 1017.5 hPa ENE 1.6 km/h 3.2 km/h 84% 0 mm 0.00 W/m2
01:39 -11.7 °C -13.8 °C 1017.5 hPa ENE 1.6 km/h 3.2 km/h 84% 0 mm 0.00 W/m2
01:44 -11.6 °C -13.8 °C 1017.5 hPa ENE 3.2 km/h 3.2 km/h 84% 0 mm 0.00 W/m2
01:49 -11.6 °C -13.7 °C 1017.5 hPa ENE 1.6 km/h 3.2 km/h 84% 0 mm 0.00 W/m2
01:54 -11.6 °C -13.7 °C 1017.5 hPa SE 4.8 km/h 4.8 km/h 84% 0 mm 0.00 W/m2
01:59 -11.7 °C -13.9 °C 1017.5 hPa SE 6.4 km/h 8 km/h 84% 0 mm 0.00 W/m2
02:04 -12.1 °C -14.3 °C 1017.5 hPa SE 3.2 km/h 8 km/h 83% 0 mm 0.00 W/m2
02:09 -12.3 °C -14.5 °C 1017.5 hPa ESE 4.8 km/h 6.4 km/h 84% 0 mm 0.00 W/m2
02:14 -12.6 °C -14.7 °C 1017.5 hPa East 3.2 km/h 9.7 km/h 84% 0 mm 0.00 W/m2
02:19 -12.6 °C -14.8 °C 1017.5 hPa ESE 4.8 km/h 9.7 km/h 84% 0 mm 0.00 W/m2
02:24 -12.6 °C -14.6 °C 1017.5 hPa SE 4.8 km/h 8 km/h 85% 0 mm 0.00 W/m2
02:29 -12.6 °C -14.6 °C 1017.5 hPa ESE 1.6 km/h 8 km/h 85% 0 mm 0.00 W/m2
02:34 -12.5 °C -14.3 °C 1017.5 hPa ESE 1.6 km/h 6.4 km/h 86% 0 mm 0.00 W/m2
02:39 -12.4 °C -14.4 °C 1017.5 hPa ENE 3.2 km/h 4.8 km/h 85% 0 mm 0.00 W/m2
02:44 -12.4 °C -14.2 °C 1017.5 hPa ENE 4.8 km/h 6.4 km/h 86% 0 mm 0.00 W/m2
02:49 -12.4 °C -14.4 °C 1017.5 hPa Calm   6.4 km/h 85% 0 mm 0.00 W/m2
02:54 -12.4 °C -14.4 °C 1017.5 hPa Calm   4.8 km/h 85% 0 mm 0.00 W/m2
02:59 -12.4 °C -14.4 °C 1017.5 hPa Calm   3.2 km/h 85% 0 mm 0.00 W/m2
03:04 -12.4 °C -14.2 °C 1017.5 hPa ESE 3.2 km/h 3.2 km/h 86% 0 mm 0.00 W/m2
03:09 -12.4 °C -14.3 °C 1017.5 hPa ESE 3.2 km/h 4.8 km/h 86% 0 mm 0.00 W/m2
03:14 -12.4 °C -14.3 °C 1017.5 hPa SE 4.8 km/h 4.8 km/h 86% 0 mm 0.00 W/m2
03:19 -12.4 °C -14.2 °C 1017.5 hPa SE 4.8 km/h 6.4 km/h 86% 0 mm 0.00 W/m2
03:24 -12.3 °C -14.2 °C 1017.2 hPa ESE 4.8 km/h 6.4 km/h 86% 0 mm 0.00 W/m2
03:29 -12.3 °C -14.2 °C 1017.2 hPa ESE 3.2 km/h 6.4 km/h 86% 0 mm 0.00 W/m2
03:34 -12.3 °C -14.1 °C 1017.2 hPa ESE 3.2 km/h 6.4 km/h 86% 0 mm 0.00 W/m2
03:39 -12.2 °C -14.1 °C 1017.2 hPa ESE 4.8 km/h 8 km/h 86% 0 mm 0.00 W/m2
03:44 -12.3 °C -14.1 °C 1017.2 hPa SE 4.8 km/h 8 km/h 86% 0 mm 0.00 W/m2
03:49 -12.3 °C -14.1 °C 1017.2 hPa ESE 3.2 km/h 6.4 km/h 86% 0 mm 0.00 W/m2
03:54 -12.3 °C -14.1 °C 1017.2 hPa ESE 1.6 km/h 6.4 km/h 86% 0 mm 0.00 W/m2
03:59 -12.2 °C -14.1 °C 1017.2 hPa Calm   4.8 km/h 86% 0 mm 0.00 W/m2
04:04 -12.2 °C -14.1 °C 1017.2 hPa ESE 1.6 km/h 3.2 km/h 86% 0 mm 0.00 W/m2
04:09 -12.2 °C -14.1 °C 1017.2 hPa Calm   3.2 km/h 86% 0 mm 0.00 W/m2
04:14 -12.2 °C -14.1 °C 1017.2 hPa Calm   3.2 km/h 86% 0 mm 0.00 W/m2
04:19 -12.2 °C -14.1 °C 1017.2 hPa ESE 1.6 km/h 1.6 km/h 86% 0 mm 0.00 W/m2
04:24 -12.2 °C -14.1 °C 1017.2 hPa Calm   1.6 km/h 86% 0 mm 0.00 W/m2
04:29 -12.2 °C -14.1 °C 1017.2 hPa ESE 1.6 km/h 1.6 km/h 86% 0 mm 0.00 W/m2
04:34 -12.1 °C -13.8 °C 1017.5 hPa ESE 1.6 km/h 3.2 km/h 87% 0 mm 0.00 W/m2
04:39 -12.1 °C -13.8 °C 1017.5 hPa West 3.2 km/h 4.8 km/h 87% 0 mm 0.00 W/m2
04:44 -12.1 °C -13.8 °C 1017.5 hPa West 1.6 km/h 4.8 km/h 87% 0 mm 0.00 W/m2
04:49 -12.2 °C -13.9 °C 1017.5 hPa Calm   4.8 km/h 87% 0 mm 0.00 W/m2
04:54 -12.3 °C -14 °C 1017.5 hPa Calm   3.2 km/h 87% 0 mm 0.00 W/m2
04:59 -12.3 °C -14 °C 1017.5 hPa Calm     87% 0 mm 0.00 W/m2
05:04 -12.3 °C -14 °C 1017.8 hPa West 1.6 km/h 3.2 km/h 87% 0 mm 0.00 W/m2
05:09 -12.3 °C -14.1 °C 1017.8 hPa West 1.6 km/h 3.2 km/h 87% 0 mm 0.00 W/m2
05:14 -12.3 °C -13.9 °C 1017.5 hPa Calm   3.2 km/h 88% 0 mm 0.00 W/m2
05:19 -12.3 °C -13.8 °C 1017.5 hPa Calm   3.2 km/h 88% 0 mm 0.00 W/m2
05:24 -12.2 °C -13.8 °C 1017.5 hPa Calm   3.2 km/h 88% 0 mm 0.00 W/m2
05:29 -12.2 °C -13.7 °C 1017.8 hPa West 1.6 km/h 3.2 km/h 88% 0 mm 0.00 W/m2
05:34 -12.1 °C -13.7 °C 1017.8 hPa West 3.2 km/h 3.2 km/h 88% 0 mm 0.00 W/m2
05:39 -12.1 °C -13.6 °C 1018.2 hPa NW 3.2 km/h 4.8 km/h 88% 0 mm 0.00 W/m2
05:44 -12.1 °C -13.6 °C 1018.2 hPa NW 3.2 km/h 4.8 km/h 88% 0 mm 0.00 W/m2
05:49 -12.1 °C -13.7 °C 1018.2 hPa NW 1.6 km/h 4.8 km/h 88% 0 mm 0.00 W/m2
05:54 -12.2 °C -13.7 °C 1018.2 hPa NW 3.2 km/h 4.8 km/h 88% 0 mm 0.00 W/m2
05:59 -12.2 °C -13.7 °C 1018.2 hPa NW 3.2 km/h 6.4 km/h 88% 0 mm 0.00 W/m2
06:04 -12.2 °C -13.7 °C 1018.2 hPa NW 3.2 km/h 6.4 km/h 88% 0 mm 0.00 W/m2
06:09 -12.2 °C -13.7 °C 1018.2 hPa NW 3.2 km/h 4.8 km/h 88% 0 mm 0.00 W/m2
06:14 -12.1 °C -13.5 °C 1018.5 hPa NW 3.2 km/h 4.8 km/h 89% 0 mm 0.00 W/m2
06:19 -12.1 °C -13.6 °C 1018.2 hPa NW 3.2 km/h 4.8 km/h 88% 0 mm 0.00 W/m2
06:24 -12 °C -13.4 °C 1018.2 hPa NNW 1.6 km/h 4.8 km/h 89% 0 mm 0.00 W/m2
06:29 -11.9 °C -13.4 °C 1018.2 hPa North 3.2 km/h 4.8 km/h 89% 0 mm 0.00 W/m2
06:34 -11.8 °C -13.3 °C 1018.5 hPa North 3.2 km/h 4.8 km/h 89% 0 mm 0.00 W/m2
06:39 -11.8 °C -13.2 °C 1018.5 hPa North 3.2 km/h 4.8 km/h 89% 0 mm 0.00 W/m2
06:44 -11.8 °C -13.2 °C 1018.5 hPa North 3.2 km/h 3.2 km/h 89% 0 mm 0.00 W/m2
06:49 -11.8 °C -13.2 °C 1018.5 hPa Calm   3.2 km/h 89% 0 mm 0.00 W/m2
06:54 -11.8 °C -13.2 °C 1018.8 hPa North 1.6 km/h 3.2 km/h 89% 0 mm 0.00 W/m2
06:59 -11.8 °C -13.2 °C 1018.8 hPa North 1.6 km/h 3.2 km/h 89% 0 mm 0.00 W/m2
07:04 -11.8 °C -13.2 °C 1018.8 hPa North 3.2 km/h 3.2 km/h 89% 0 mm 0.00 W/m2
07:09 -11.8 °C -13.2 °C 1018.8 hPa Calm   3.2 km/h 89% 0 mm 0.00 W/m2
07:14 -11.8 °C -13.2 °C 1018.8 hPa Calm   3.2 km/h 89% 0 mm 0.00 W/m2
07:19 -11.8 °C -13.2 °C 1019.2 hPa Calm   3.2 km/h 89% 0 mm 0.00 W/m2
07:24 -11.7 °C -13.2 °C 1019.2 hPa Calm     89% 0 mm 0.00 W/m2
07:29 -11.7 °C -13.2 °C 1019.2 hPa Calm     89% 0 mm 0.00 W/m2
07:34 -11.7 °C -13.1 °C 1019.5 hPa Calm     89% 0 mm 5.00 W/m2
07:39 -11.6 °C -13.1 °C 1019.5 hPa Calm     89% 0 mm 7.00 W/m2
07:44 -11.6 °C -13.1 °C 1019.5 hPa North 3.2 km/h 4.8 km/h 89% 0 mm 7.00 W/m2
07:49 -11.6 °C -13.1 °C 1019.5 hPa North 3.2 km/h 4.8 km/h 89% 0 mm 9.00 W/m2
07:54 -11.6 °C -13 °C 1019.5 hPa North 1.6 km/h 4.8 km/h 89% 0 mm 12.00 W/m2
07:59 -11.6 °C -13 °C 1019.5 hPa North 1.6 km/h 4.8 km/h 89% 0 mm 14.00 W/m2
08:04 -11.5 °C -12.9 °C 1019.9 hPa North 3.2 km/h 3.2 km/h 89% 0 mm 19.00 W/m2
08:09 -11.4 °C -12.9 °C 1019.9 hPa North 3.2 km/h 4.8 km/h 89% 0 mm 23.00 W/m2
08:14 -11.4 °C -12.9 °C 1019.9 hPa North 3.2 km/h 4.8 km/h 89% 0 mm 25.00 W/m2
08:19 -11.4 °C -12.8 °C 1019.9 hPa North 3.2 km/h 4.8 km/h 89% 0 mm 26.00 W/m2
08:24 -11.3 °C -12.8 °C 1019.9 hPa NW 4.8 km/h 6.4 km/h 89% 0 mm 35.00 W/m2
08:29 -11.5 °C -13.1 °C 1019.9 hPa NW 6.4 km/h 8 km/h 88% 0 mm 42.00 W/m2
08:34 -11.7 °C -13.3 °C 1019.9 hPa NW 8 km/h 8 km/h 88% 0 mm 49.00 W/m2
08:39 -11.7 °C -13.3 °C 1019.9 hPa NW 3.2 km/h 8 km/h 88% 0 mm 54.00 W/m2
08:44 -11.7 °C -13.3 °C 1019.9 hPa North 3.2 km/h 8 km/h 88% 0 mm 60.00 W/m2
08:49 -11.4 °C -12.8 °C 1020.2 hPa North 8 km/h 8 km/h 89% 0 mm 63.00 W/m2
08:54 -11.2 °C -12.6 °C 1020.2 hPa North 4.8 km/h 8 km/h 89% 0 mm 67.00 W/m2
08:59 -11 °C -12.6 °C 1020.2 hPa North 3.2 km/h 8 km/h 88% 0 mm 69.00 W/m2
09:04 -11.1 °C -12.8 °C 1020.2 hPa North 4.8 km/h 6.4 km/h 87% 0 mm 62.00 W/m2
09:09 -11.3 °C -13 °C 1020.5 hPa NW 6.4 km/h 8 km/h 87% 0 mm 60.00 W/m2
09:14 -11.4 °C -13.1 °C 1020.5 hPa NW 4.8 km/h 8 km/h 87% 0 mm 69.00 W/m2
09:19 -11.4 °C -13.1 °C 1020.5 hPa NW 6.4 km/h 8 km/h 87% 0 mm 102.00 W/m2
09:24 -11.2 °C -12.9 °C 1020.9 hPa NW 6.4 km/h 8 km/h 87% 0 mm 127.00 W/m2
09:29 -11.1 °C -12.8 °C 1020.9 hPa NW 6.4 km/h 11.3 km/h 87% 0 mm 123.00 W/m2
09:34 -11.1 °C -12.8 °C 1020.9 hPa NW 6.4 km/h 11.3 km/h 87% 0 mm 105.00 W/m2
09:39 -11.2 °C -12.9 °C 1020.9 hPa NW 3.2 km/h 11.3 km/h 87% 0 mm 95.00 W/m2
09:44 -11.2 °C -12.9 °C 1021.2 hPa NNW 6.4 km/h 9.7 km/h 87% 0 mm 90.00 W/m2
09:49 -11.1 °C -12.8 °C 1021.2 hPa NNW 8 km/h 9.7 km/h 87% 0 mm 90.00 W/m2
09:54 -11 °C -12.7 °C 1021.2 hPa NNW 9.7 km/h 11.3 km/h 87% 0 mm 88.00 W/m2
09:59 -10.9 °C -12.7 °C 1021.2 hPa NNW 8 km/h 11.3 km/h 87% 0 mm 90.00 W/m2
10:04 -10.8 °C -12.6 °C 1021.2 hPa NNW 8 km/h 11.3 km/h 87% 0 mm 95.00 W/m2
10:09 -10.7 °C -12.4 °C 1021.2 hPa NNW 6.4 km/h 9.7 km/h 87% 0 mm 105.00 W/m2
10:14 -10.7 °C -12.4 °C 1021.2 hPa NNW 9.7 km/h 12.9 km/h 87% 0 mm 114.00 W/m2
10:19 -10.7 °C -12.4 °C 1021.6 hPa NNW 9.7 km/h 14.5 km/h 87% 0 mm 125.00 W/m2
10:24 -10.8 °C -12.7 °C 1021.6 hPa WNW 11.3 km/h 14.5 km/h 86% 0 mm 135.00 W/m2
10:29 -11.1 °C -13 °C 1021.6 hPa NNW 8 km/h 14.5 km/h 86% 0 mm 149.00 W/m2
10:34 -11.1 °C -12.8 °C 1021.6 hPa NNW 9.7 km/h 14.5 km/h 87% 0 mm 148.00 W/m2
10:39 -10.9 °C -12.7 °C 1021.6 hPa NW 8 km/h 14.5 km/h 87% 0 mm 156.00 W/m2
10:44 -10.8 °C -12.5 °C 1021.9 hPa NW 12.9 km/h 16.1 km/h 87% 0 mm 160.00 W/m2
10:49 -10.7 °C -12.4 °C 1021.9 hPa NNW 12.9 km/h 16.1 km/h 87% 0 mm 169.00 W/m2
10:54 -10.4 °C -12.1 °C 1021.9 hPa North 14.5 km/h 17.7 km/h 87% 0 mm 163.00 W/m2
10:59 -10 °C -11.8 °C 1021.9 hPa North 9.7 km/h 17.7 km/h 87% 0 mm 146.00 W/m2
11:04 -9.8 °C -11.7 °C 1021.9 hPa North 11.3 km/h 14.5 km/h 86% 0 mm 135.00 W/m2
11:09 -9.7 °C -11.6 °C 1022.2 hPa North 11.3 km/h 14.5 km/h 86% 0 mm 137.00 W/m2
11:14 -9.7 °C -11.9 °C 1022.2 hPa North 14.5 km/h 14.5 km/h 84% 0 mm 142.00 W/m2
11:19 -9.7 °C -11.9 °C 1022.6 hPa North 14.5 km/h 19.3 km/h 84% 0 mm 151.00 W/m2
11:24 -9.8 °C -12.2 °C 1022.6 hPa NNW 14.5 km/h 20.9 km/h 83% 0 mm 165.00 W/m2
11:29 -9.8 °C -12.1 °C 1022.6 hPa NNW 14.5 km/h 20.9 km/h 83% 0 mm 174.00 W/m2
11:34 -9.7 °C -12 °C 1022.6 hPa NNW 11.3 km/h 17.7 km/h 83% 0 mm 167.00 W/m2
11:39 -9.8 °C -12.3 °C 1022.6 hPa NNW 19.3 km/h 19.3 km/h 82% 0 mm 158.00 W/m2
11:44 -10.3 °C -12.8 °C 1022.6 hPa NNW 12.9 km/h 19.3 km/h 82% 0 mm 158.00 W/m2
11:49 -10.4 °C -12.6 °C 1022.9 hPa NNW 12.9 km/h 20.9 km/h 84% 0 mm 165.00 W/m2
11:54 -10.3 °C -12.4 °C 1022.9 hPa NNW 11.3 km/h 20.9 km/h 84% 0 mm 176.00 W/m2
11:59 -10.3 °C -12.7 °C 1022.9 hPa NNW 17.7 km/h 19.3 km/h 83% 0 mm 188.00 W/m2
12:04 -10.4 °C -12.7 °C 1022.9 hPa NNW 16.1 km/h 19.3 km/h 83% 0 mm 181.00 W/m2
12:09 -10.1 °C -12.3 °C 1023.2 hPa NNW 12.9 km/h 19.3 km/h 84% 0 mm 190.00 W/m2
12:14 -10.2 °C -12.7 °C 1022.9 hPa NNW 12.9 km/h 19.3 km/h 82% 0 mm 192.00 W/m2
12:19 -10.2 °C -12.7 °C 1023.2 hPa North 16.1 km/h 17.7 km/h 82% 0 mm 171.00 W/m2
12:24 -10.1 °C -12.6 °C 1023.2 hPa North 16.1 km/h 17.7 km/h 82% 0 mm 167.00 W/m2
12:29 -9.9 °C -12.4 °C 1023.2 hPa NNW 8 km/h 17.7 km/h 82% 0 mm 181.00 W/m2
12:34 -9.7 °C -12.4 °C 1023.2 hPa North 11.3 km/h 16.1 km/h 81% 0 mm 211.00 W/m2
12:39 -9.2 °C -11.9 °C 1023.2 hPa North 9.7 km/h 12.9 km/h 81% 0 mm 253.00 W/m2
12:44 -8.7 °C -11.6 °C 1023.2 hPa North 11.3 km/h 12.9 km/h 80% 0 mm 290.00 W/m2
12:49 -8.4 °C -11.6 °C 1023.2 hPa North 9.7 km/h 12.9 km/h 78% 0 mm 339.00 W/m2
12:54 -8.3 °C -11.7 °C 1023.2 hPa NNW 8 km/h 12.9 km/h 77% 0 mm 373.00 W/m2
12:59 -8.2 °C -11.7 °C 1023.2 hPa North 12.9 km/h 14.5 km/h 76% 0 mm 480.00 W/m2
13:04 -8.3 °C -12.2 °C 1023.2 hPa North 12.9 km/h 14.5 km/h 74% 0 mm 506.00 W/m2
13:09 -8.8 °C -12.4 °C 1023.6 hPa NNW 11.3 km/h 14.5 km/h 75% 0 mm 517.00 W/m2
13:14 -9.7 °C -13.3 °C 1023.6 hPa NNW 8 km/h 14.5 km/h 75% 0 mm 526.00 W/m2
13:19 -10 °C -13.3 °C 1023.6 hPa NNW 11.3 km/h 14.5 km/h 77% 0 mm 536.00 W/m2
13:24 -10 °C -13.1 °C 1023.6 hPa NNW 11.3 km/h 14.5 km/h 78% 0 mm 550.00 W/m2
13:29 -10.1 °C -13.2 °C 1023.6 hPa NNW 11.3 km/h 16.1 km/h 78% 0 mm 557.00 W/m2
13:34 -9.9 °C -12.8 °C 1023.6 hPa North 9.7 km/h 16.1 km/h 79% 0 mm 566.00 W/m2
13:39 -9.4 °C -12.6 °C 1023.6 hPa NNW 11.3 km/h 16.1 km/h 78% 0 mm 577.00 W/m2
13:44 -9.3 °C -12.6 °C 1023.6 hPa NNW 11.3 km/h 14.5 km/h 77% 0 mm 585.00 W/m2
13:49 -9.4 °C -12.7 °C 1023.6 hPa NNW 11.3 km/h 14.5 km/h 77% 0 mm 589.00 W/m2
13:54 -9.8 °C -13.1 °C 1023.6 hPa NNW 14.5 km/h 16.1 km/h 77% 0 mm 589.00 W/m2
13:59 -10.1 °C -13.3 °C 1023.6 hPa NNW 11.3 km/h 16.1 km/h 77% 0 mm 587.00 W/m2
14:04 -10.2 °C -13.3 °C 1023.6 hPa NW 16.1 km/h 17.7 km/h 78% 0 mm 587.00 W/m2
14:09 -10.6 °C -13.5 °C 1023.6 hPa NW 12.9 km/h 19.3 km/h 79% 0 mm 584.00 W/m2
14:14 -10.7 °C -13.6 °C 1023.9 hPa NNW 12.9 km/h 19.3 km/h 79% 0 mm 578.00 W/m2
14:19 -10.7 °C -13.7 °C 1023.9 hPa NW 11.3 km/h 16.1 km/h 79% 0 mm 573.00 W/m2
14:24 -10.6 °C -13.3 °C 1023.6 hPa NW 12.9 km/h 16.1 km/h 80% 0 mm 568.00 W/m2
14:29 -10.6 °C -13.5 °C 1023.6 hPa WNW 11.3 km/h 17.7 km/h 79% 0 mm 563.00 W/m2
14:34 -10.7 °C -13.6 °C 1023.9 hPa NW 11.3 km/h 17.7 km/h 79% 0 mm 552.00 W/m2
14:39 -10.7 °C -13.7 °C 1023.9 hPa NW 12.9 km/h 16.1 km/h 79% 0 mm 547.00 W/m2
14:44 -10.6 °C -13.5 °C 1023.9 hPa NNW 14.5 km/h 16.1 km/h 79% 0 mm 541.00 W/m2
14:49 -10.4 °C -13.4 °C 1023.6 hPa NNW 12.9 km/h 16.1 km/h 79% 0 mm 538.00 W/m2
14:54 -10.6 °C -13.7 °C 1024.3 hPa NW 11.3 km/h 19.3 km/h 78% 0 mm 534.00 W/m2
14:59 -10.7 °C -13.6 °C 1024.3 hPa NW 11.3 km/h 19.3 km/h 79% 0 mm 533.00 W/m2
15:04 -10.6 °C -13.7 °C 1024.3 hPa NNW 9.7 km/h 19.3 km/h 78% 0 mm 527.00 W/m2
15:09 -10.5 °C -13.6 °C 1024.3 hPa NNW 14.5 km/h 16.1 km/h 78% 0 mm 522.00 W/m2
15:14 -10.5 °C -13.6 °C 1024.3 hPa NNW 17.7 km/h 19.3 km/h 78% 0 mm 515.00 W/m2
15:19 -10.4 °C -13.6 °C 1024.3 hPa NNW 14.5 km/h 20.9 km/h 78% 0 mm 506.00 W/m2
15:24 -10.4 °C -13.5 °C 1024.6 hPa NNW 11.3 km/h 20.9 km/h 78% 0 mm 497.00 W/m2
15:29 -10.2 °C -13.3 °C 1024.6 hPa NNW 12.9 km/h 17.7 km/h 78% 0 mm 487.00 W/m2
15:34 -10.2 °C -13.5 °C 1024.6 hPa North 12.9 km/h 16.1 km/h 77% 0 mm 476.00 W/m2
15:39 -9.9 °C -13.1 °C 1024.6 hPa North 16.1 km/h 17.7 km/h 78% 0 mm 459.00 W/m2
15:44 -9.7 °C -13.2 °C 1024.6 hPa NNW 12.9 km/h 19.3 km/h 76% 0 mm 448.00 W/m2
15:49 -9.7 °C -13.3 °C 1024.6 hPa NNW 11.3 km/h 19.3 km/h 75% 0 mm 439.00 W/m2
15:54 -9.7 °C -13.3 °C 1024.6 hPa North 11.3 km/h 16.1 km/h 75% 0 mm 427.00 W/m2
15:59 -9.9 °C -13.7 °C 1024.9 hPa NNW 11.3 km/h 16.1 km/h 74% 0 mm 413.00 W/m2
16:04 -10.3 °C -13.9 °C 1024.9 hPa North 11.3 km/h 16.1 km/h 75% 0 mm 399.00 W/m2
16:09 -10.6 °C -13.9 °C 1024.9 hPa NNW 11.3 km/h 16.1 km/h 76% 0 mm 385.00 W/m2
16:14 -10.7 °C -14.1 °C 1025.3 hPa NNW 11.3 km/h 14.5 km/h 76% 0 mm 373.00 W/m2
16:19 -10.8 °C -14 °C 1025.3 hPa NNW 11.3 km/h 14.5 km/h 77% 0 mm 360.00 W/m2
16:24 -10.7 °C -13.9 °C 1025.3 hPa NNW 9.7 km/h 14.5 km/h 77% 0 mm 345.00 W/m2
16:29 -10.7 °C -13.9 °C 1025.3 hPa NNW 8 km/h 12.9 km/h 77% 0 mm 330.00 W/m2
16:34 -10.5 °C -13.8 °C 1025.3 hPa North 4.8 km/h 11.3 km/h 77% 0 mm 315.00 W/m2
16:39 -10.2 °C -13.7 °C 1025.3 hPa NNW 6.4 km/h 9.7 km/h 76% 0 mm 299.00 W/m2
16:44 -10.5 °C -14.1 °C 1025.6 hPa NNW 8 km/h 8 km/h 75% 0 mm 279.00 W/m2
16:49 -10.8 °C -14.3 °C 1025.6 hPa NNW 8 km/h 9.7 km/h 75% 0 mm 260.00 W/m2
16:54 -10.9 °C -14.3 °C 1025.6 hPa NNW 8 km/h 11.3 km/h 76% 0 mm 241.00 W/m2
16:59 -11.1 °C -14.4 °C 1025.6 hPa NNW 8 km/h 11.3 km/h 76% 0 mm 220.00 W/m2
17:04 -11.1 °C -14.3 °C 1026 hPa NNW 4.8 km/h 9.7 km/h 77% 0 mm 199.00 W/m2
17:09 -11.1 °C -14.5 °C 1026 hPa NNW 6.4 km/h 9.7 km/h 76% 0 mm 181.00 W/m2
17:14 -11.3 °C -14.7 °C 1026 hPa NNW 6.4 km/h 8 km/h 76% 0 mm 160.00 W/m2
17:19 -11.2 °C -14.6 °C 1025.6 hPa NNW 6.4 km/h 8 km/h 76% 0 mm 144.00 W/m2
17:24 -10.9 °C -14.3 °C 1026 hPa NNW 4.8 km/h 8 km/h 76% 0 mm 118.00 W/m2
17:29 -11 °C -14.6 °C 1026 hPa NNW 1.6 km/h 8 km/h 75% 0 mm 111.00 W/m2
17:34 -10.9 °C -14.5 °C 1026 hPa Calm   6.4 km/h 75% 0 mm 102.00 W/m2
17:39 -10.7 °C -14.3 °C 1026 hPa Calm   3.2 km/h 75% 0 mm 84.00 W/m2
17:44 -10.5 °C -14.1 °C 1026 hPa Calm   1.6 km/h 75% 0 mm 70.00 W/m2
17:49 -10.4 °C -14.3 °C 1026 hPa North 4.8 km/h 6.4 km/h 73% 0 mm 53.00 W/m2
17:54 -10.6 °C -14.7 °C 1026.3 hPa North 4.8 km/h 6.4 km/h 72% 0 mm 33.00 W/m2
17:59 -11.2 °C -15.2 °C 1026.3 hPa NNE 6.4 km/h 8 km/h 72% 0 mm 23.00 W/m2
18:04 -11.7 °C -15.7 °C 1026.3 hPa NNE 4.8 km/h 8 km/h 72% 0 mm 19.00 W/m2
18:09 -12.2 °C -16.1 °C 1026.3 hPa NNE 6.4 km/h 8 km/h 73% 0 mm 16.00 W/m2
18:14 -12.7 °C -16.2 °C 1026.3 hPa NNE 6.4 km/h 8 km/h 75% 0 mm 12.00 W/m2
18:19 -13 °C -16.3 °C 1026.6 hPa NNE 4.8 km/h 8 km/h 76% 0 mm 11.00 W/m2
18:24 -13.3 °C -16.4 °C 1026.6 hPa NNE 6.4 km/h 8 km/h 77% 0 mm 7.00 W/m2
18:29 -13.6 °C -16.6 °C 1026.6 hPa North 6.4 km/h 8 km/h 78% 0 mm 5.00 W/m2
18:34 -13.8 °C -16.8 °C 1027 hPa North 6.4 km/h 8 km/h 78% 0 mm 0.00 W/m2
18:39 -14.1 °C -16.9 °C 1027 hPa NNE 6.4 km/h 8 km/h 79% 0 mm 0.00 W/m2
18:44 -14.3 °C -17 °C 1027 hPa North 6.4 km/h 8 km/h 80% 0 mm 0.00 W/m2
18:49 -14.5 °C -17.2 °C 1027.3 hPa North 4.8 km/h 8 km/h 80% 0 mm 0.00 W/m2
18:54 -14.6 °C -16.9 °C 1027.3 hPa North 1.6 km/h 8 km/h 82% 0 mm 0.00 W/m2
18:59 -14.7 °C -17.1 °C 1027.3 hPa North 3.2 km/h 6.4 km/h 82% 0 mm 0.00 W/m2
19:04 -14.8 °C -17.2 °C 1027.3 hPa North 3.2 km/h 4.8 km/h 82% 0 mm 0.00 W/m2
19:09 -14.9 °C -17.1 °C 1027.3 hPa North 6.4 km/h 6.4 km/h 83% 0 mm 0.00 W/m2
19:14 -14.9 °C -17.2 °C 1027.3 hPa North 4.8 km/h 8 km/h 83% 0 mm 0.00 W/m2
19:19 -14.9 °C -17 °C 1027.7 hPa North 3.2 km/h 8 km/h 84% 0 mm 0.00 W/m2
19:24 -14.8 °C -16.8 °C 1027.7 hPa Calm   6.4 km/h 85% 0 mm 0.00 W/m2
19:29 -14.8 °C -16.9 °C 1027.7 hPa Calm   4.8 km/h 84% 0 mm 0.00 W/m2
19:34 -14.9 °C -17 °C 1027.7 hPa Calm   3.2 km/h 84% 0 mm 0.00 W/m2
19:39 -14.9 °C -16.9 °C 1027.7 hPa North 4.8 km/h 4.8 km/h 85% 0 mm 0.00 W/m2
19:44 -14.9 °C -16.8 °C 1028 hPa North 3.2 km/h 4.8 km/h 85% 0 mm 0.00 W/m2
19:49 -14.8 °C -16.7 °C 1028 hPa North 1.6 km/h 4.8 km/h 86% 0 mm 0.00 W/m2
19:54 -14.8 °C -16.6 °C 1028 hPa North 3.2 km/h 4.8 km/h 86% 0 mm 0.00 W/m2
19:59 -14.7 °C -16.6 °C 1028 hPa North 3.2 km/h 3.2 km/h 86% 0 mm 0.00 W/m2
20:04 -14.7 °C -16.5 °C 1028 hPa North 1.6 km/h 3.2 km/h 86% 0 mm 0.00 W/m2
20:09 -14.7 °C -16.6 °C 1028.3 hPa North 1.6 km/h 3.2 km/h 86% 0 mm 0.00 W/m2
20:14 -14.6 °C -16.4 °C 1028.3 hPa North 1.6 km/h 3.2 km/h 86% 0 mm 0.00 W/m2
20:19 -14.6 °C -16.4 °C 1028.3 hPa North 3.2 km/h 4.8 km/h 86% 0 mm 0.00 W/m2
20:24 -14.6 °C -16.4 °C 1028.3 hPa NW 4.8 km/h 4.8 km/h 86% 0 mm 0.00 W/m2
20:29 -14.7 °C -16.6 °C 1028.3 hPa NW 6.4 km/h 6.4 km/h 86% 0 mm 0.00 W/m2
20:34 -14.9 °C -16.9 °C 1028.3 hPa NW 8 km/h 11.3 km/h 85% 0 mm 0.00 W/m2
20:39 -14.9 °C -16.8 °C 1028.3 hPa NW 9.7 km/h 12.9 km/h 86% 0 mm 0.00 W/m2
20:44 -14.7 °C -16.4 °C 1028.7 hPa NW 9.7 km/h 14.5 km/h 87% 0 mm 0.00 W/m2
20:49 -14.9 °C -16.7 °C 1028.3 hPa NW 8 km/h 14.5 km/h 86% 0 mm 0.00 W/m2
20:54 -15.2 °C -17.2 °C 1028.7 hPa WNW 6.4 km/h 11.3 km/h 85% 0 mm 0.00 W/m2
20:59 -15.3 °C -17.2 °C 1028.7 hPa WNW 4.8 km/h 8 km/h 85% 0 mm 0.00 W/m2
21:04 -15.4 °C -17.2 °C 1028.7 hPa WNW 3.2 km/h 8 km/h 86% 0 mm 0.00 W/m2
21:09 -15.6 °C -17.5 °C 1029 hPa WNW 3.2 km/h 6.4 km/h 85% 0 mm 0.00 W/m2
21:14 -15.6 °C -17.6 °C 1029 hPa WNW 1.6 km/h 3.2 km/h 85% 0 mm 0.00 W/m2
21:19 -15.6 °C -17.4 °C 1029 hPa WNW 3.2 km/h 4.8 km/h 86% 0 mm 0.00 W/m2
21:24 -15.6 °C -17.4 °C 1029 hPa WNW 4.8 km/h 6.4 km/h 86% 0 mm 0.00 W/m2
21:29 -15.6 °C -17.4 °C 1029 hPa WNW 6.4 km/h 8 km/h 86% 0 mm 0.00 W/m2
21:34 -15.6 °C -17.4 °C 1029 hPa WNW 9.7 km/h 9.7 km/h 86% 0 mm 0.00 W/m2
21:39 -15.4 °C -17.1 °C 1029 hPa WNW 9.7 km/h 11.3 km/h 87% 0 mm 0.00 W/m2
21:44 -15.3 °C -16.9 °C 1029.3 hPa NW 9.7 km/h 14.5 km/h 87% 0 mm 0.00 W/m2
21:49 -14.9 °C -16.8 °C 1029.3 hPa NW 8 km/h 14.5 km/h 86% 0 mm 0.00 W/m2
21:54 -14.9 °C -17.1 °C 1029.3 hPa NNW 12.9 km/h 16.1 km/h 84% 0 mm 0.00 W/m2
21:59 -15.2 °C -17.4 °C 1029.3 hPa NNW 11.3 km/h 16.1 km/h 83% 0 mm 0.00 W/m2
22:04 -15.5 °C -18 °C 1029.3 hPa NNW 11.3 km/h 12.9 km/h 81% 0 mm 0.00 W/m2
22:09 -15.8 °C -18.3 °C 1029.3 hPa NNW 9.7 km/h 12.9 km/h 81% 0 mm 0.00 W/m2
22:14 -16 °C -18.7 °C 1029.3 hPa NNW 9.7 km/h 12.9 km/h 80% 0 mm 0.00 W/m2
22:19 -16.2 °C -18.9 °C 1029.3 hPa NNW 11.3 km/h 12.9 km/h 80% 0 mm 0.00 W/m2
22:24 -16.4 °C -19.2 °C 1029.7 hPa NW 12.9 km/h 14.5 km/h 79% 0 mm 0.00 W/m2
22:29 -16.4 °C -19.1 °C 1029.7 hPa NW 11.3 km/h 16.1 km/h 80% 0 mm 0.00 W/m2
22:34 -16.1 °C -18.8 °C 1029.3 hPa NW 12.9 km/h 16.1 km/h 80% 0 mm 0.00 W/m2
22:39 -16.1 °C -18.8 °C 1029.3 hPa NW 12.9 km/h 16.1 km/h 79% 0 mm 0.00 W/m2
22:44 -16.1 °C -18.9 °C 1029.3 hPa NW 9.7 km/h 17.7 km/h 79% 0 mm 0.00 W/m2
22:49 -16 °C -18.8 °C 1029.3 hPa NW 8 km/h 17.7 km/h 79% 0 mm 0.00 W/m2
22:54 -16.1 °C -19 °C 1029.3 hPa NW 12.9 km/h 17.7 km/h 78% 0 mm 0.00 W/m2
22:59 -16.2 °C -19.1 °C 1029.3 hPa NW 9.7 km/h 16.1 km/h 78% 0 mm 0.00 W/m2
23:04 -16.1 °C -18.8 °C 1029.3 hPa NW 14.5 km/h 19.3 km/h 79% 0 mm 0.00 W/m2
23:09 -16.1 °C -19 °C 1029.3 hPa NW 16.1 km/h 20.9 km/h 78% 0 mm 0.00 W/m2
23:14 -16.1 °C -19.1 °C 1029.3 hPa NNW 16.1 km/h 20.9 km/h 78% 0 mm 0.00 W/m2
23:19 -16.1 °C -19.1 °C 1029.3 hPa NW 17.7 km/h 20.9 km/h 78% 0 mm 0.00 W/m2
23:24 -16.3 °C -19.2 °C 1029.3 hPa NW 19.3 km/h 22.5 km/h 78% 0 mm 0.00 W/m2
23:29 -16.3 °C -19.1 °C 1029.7 hPa NW 12.9 km/h 22.5 km/h 79% 0 mm 0.00 W/m2
23:34 -16.4 °C -19.2 °C 1029.7 hPa NW 11.3 km/h 22.5 km/h 79% 0 mm 0.00 W/m2
23:39 -16.4 °C -19.2 °C 1029.7 hPa NW 9.7 km/h 20.9 km/h 79% 0 mm 0.00 W/m2
23:44 -16.4 °C -19.2 °C 1030 hPa WNW 14.5 km/h 19.3 km/h 79% 0 mm 0.00 W/m2
23:49 -16.5 °C -19.3 °C 1030 hPa NW 17.7 km/h 19.3 km/h 79% 0 mm 0.00 W/m2
23:54 -16.6 °C -19.2 °C 1030 hPa NW 9.7 km/h 19.3 km/h 80% 0 mm 0.00 W/m2
23:59 -16.6 °C -19.3 °C 1030 hPa NW 16.1 km/h 19.3 km/h 80% 0 mm 0.00 W/m2
Bismarck, North Dakota, USA
Compliments of Weather Underground - 4 mb